sensor_id;sensor_type;location;lat;lon;timestamp;P1;durP1;ratioP1;P2;durP2;ratioP2
12177;SDS011;6152;48.728;9.256;2024-02-26T00:02:16;0.80;;;0.80;;
12177;SDS011;6152;48.728;9.256;2024-02-26T00:04:43;1.77;;;1.02;;
12177;SDS011;6152;48.728;9.256;2024-02-26T00:07:09;1.40;;;1.00;;
12177;SDS011;6152;48.728;9.256;2024-02-26T00:09:35;0.68;;;0.63;;
12177;SDS011;6152;48.728;9.256;2024-02-26T00:12:02;0.68;;;0.63;;
12177;SDS011;6152;48.728;9.256;2024-02-26T00:14:29;0.70;;;0.70;;
12177;SDS011;6152;48.728;9.256;2024-02-26T00:16:55;2.55;;;0.90;;
12177;SDS011;6152;48.728;9.256;2024-02-26T00:19:22;1.45;;;1.10;;
12177;SDS011;6152;48.728;9.256;2024-02-26T00:21:48;1.98;;;0.98;;
12177;SDS011;6152;48.728;9.256;2024-02-26T00:24:14;1.83;;;1.15;;
12177;SDS011;6152;48.728;9.256;2024-02-26T00:26:41;0.80;;;0.80;;
12177;SDS011;6152;48.728;9.256;2024-02-26T00:29:07;1.13;;;0.85;;
12177;SDS011;6152;48.728;9.256;2024-02-26T00:31:33;1.17;;;0.77;;
12177;SDS011;6152;48.728;9.256;2024-02-26T00:34:01;1.00;;;0.75;;
12177;SDS011;6152;48.728;9.256;2024-02-26T00:36:27;0.90;;;0.90;;
12177;SDS011;6152;48.728;9.256;2024-02-26T00:38:53;0.95;;;0.93;;
12177;SDS011;6152;48.728;9.256;2024-02-26T00:41:20;0.68;;;0.65;;
12177;SDS011;6152;48.728;9.256;2024-02-26T00:43:46;0.77;;;0.60;;
12177;SDS011;6152;48.728;9.256;2024-02-26T00:46:12;0.90;;;0.90;;
12177;SDS011;6152;48.728;9.256;2024-02-26T00:48:38;0.80;;;0.80;;
12177;SDS011;6152;48.728;9.256;2024-02-26T00:51:05;2.05;;;0.80;;
12177;SDS011;6152;48.728;9.256;2024-02-26T00:53:31;1.27;;;1.00;;
12177;SDS011;6152;48.728;9.256;2024-02-26T00:55:57;1.20;;;0.90;;
12177;SDS011;6152;48.728;9.256;2024-02-26T00:58:24;1.83;;;0.82;;
12177;SDS011;6152;48.728;9.256;2024-02-26T01:00:50;1.42;;;0.93;;
12177;SDS011;6152;48.728;9.256;2024-02-26T01:03:17;1.55;;;1.20;;
12177;SDS011;6152;48.728;9.256;2024-02-26T01:05:44;0.80;;;0.80;;
12177;SDS011;6152;48.728;9.256;2024-02-26T01:08:10;1.95;;;1.10;;
12177;SDS011;6152;48.728;9.256;2024-02-26T01:10:36;2.70;;;1.00;;
12177;SDS011;6152;48.728;9.256;2024-02-26T01:13:02;2.17;;;1.20;;
12177;SDS011;6152;48.728;9.256;2024-02-26T01:15:28;1.20;;;1.10;;
12177;SDS011;6152;48.728;9.256;2024-02-26T01:17:55;1.20;;;1.10;;
12177;SDS011;6152;48.728;9.256;2024-02-26T01:20:21;2.85;;;0.90;;
12177;SDS011;6152;48.728;9.256;2024-02-26T01:22:47;1.13;;;0.95;;
12177;SDS011;6152;48.728;9.256;2024-02-26T01:25:13;1.25;;;1.15;;
12177;SDS011;6152;48.728;9.256;2024-02-26T01:27:40;1.52;;;1.40;;
12177;SDS011;6152;48.728;9.256;2024-02-26T01:30:08;1.23;;;1.00;;
12177;SDS011;6152;48.728;9.256;2024-02-26T01:32:35;1.77;;;1.10;;
12177;SDS011;6152;48.728;9.256;2024-02-26T01:35:02;1.10;;;1.00;;
12177;SDS011;6152;48.728;9.256;2024-02-26T01:37:28;1.23;;;1.05;;
12177;SDS011;6152;48.728;9.256;2024-02-26T01:39:55;3.60;;;1.00;;
12177;SDS011;6152;48.728;9.256;2024-02-26T01:42:21;1.42;;;1.10;;
12177;SDS011;6152;48.728;9.256;2024-02-26T01:44:47;1.10;;;1.00;;
12177;SDS011;6152;48.728;9.256;2024-02-26T01:47:13;1.05;;;0.95;;
12177;SDS011;6152;48.728;9.256;2024-02-26T01:49:40;1.30;;;0.98;;
12177;SDS011;6152;48.728;9.256;2024-02-26T01:52:07;3.33;;;1.20;;
12177;SDS011;6152;48.728;9.256;2024-02-26T01:54:35;1.27;;;0.95;;
12177;SDS011;6152;48.728;9.256;2024-02-26T01:57:03;1.15;;;1.10;;
12177;SDS011;6152;48.728;9.256;2024-02-26T01:59:31;1.63;;;1.40;;
12177;SDS011;6152;48.728;9.256;2024-02-26T02:01:58;1.98;;;1.17;;
12177;SDS011;6152;48.728;9.256;2024-02-26T02:04:28;0.98;;;0.95;;
12177;SDS011;6152;48.728;9.256;2024-02-26T02:06:55;2.83;;;1.42;;
12177;SDS011;6152;48.728;9.256;2024-02-26T02:09:23;1.30;;;1.13;;
12177;SDS011;6152;48.728;9.256;2024-02-26T02:11:49;1.30;;;1.20;;
12177;SDS011;6152;48.728;9.256;2024-02-26T02:14:15;2.88;;;1.15;;
12177;SDS011;6152;48.728;9.256;2024-02-26T02:16:41;1.30;;;1.20;;
12177;SDS011;6152;48.728;9.256;2024-02-26T02:19:07;1.38;;;0.85;;
12177;SDS011;6152;48.728;9.256;2024-02-26T02:21:33;0.95;;;0.93;;
12177;SDS011;6152;48.728;9.256;2024-02-26T02:24:00;1.00;;;0.90;;
12177;SDS011;6152;48.728;9.256;2024-02-26T02:26:26;1.42;;;1.00;;
12177;SDS011;6152;48.728;9.256;2024-02-26T02:28:52;1.98;;;1.25;;
12177;SDS011;6152;48.728;9.256;2024-02-26T02:31:18;1.50;;;1.13;;
12177;SDS011;6152;48.728;9.256;2024-02-26T02:33:45;0.50;;;0.50;;
12177;SDS011;6152;48.728;9.256;2024-02-26T02:36:11;0.55;;;0.52;;
12177;SDS011;6152;48.728;9.256;2024-02-26T02:38:37;0.75;;;0.75;;
12177;SDS011;6152;48.728;9.256;2024-02-26T02:41:13;1.00;;;0.52;;
12177;SDS011;6152;48.728;9.256;2024-02-26T02:43:39;1.70;;;0.50;;
12177;SDS011;6152;48.728;9.256;2024-02-26T02:46:05;0.30;;;0.30;;
12177;SDS011;6152;48.728;9.256;2024-02-26T02:48:31;0.82;;;0.55;;
12177;SDS011;6152;48.728;9.256;2024-02-26T02:50:57;0.68;;;0.60;;
12177;SDS011;6152;48.728;9.256;2024-02-26T02:53:23;0.30;;;0.30;;
12177;SDS011;6152;48.728;9.256;2024-02-26T02:55:49;0.40;;;0.40;;
12177;SDS011;6152;48.728;9.256;2024-02-26T02:58:15;1.38;;;0.47;;
12177;SDS011;6152;48.728;9.256;2024-02-26T03:00:41;1.45;;;0.50;;
12177;SDS011;6152;48.728;9.256;2024-02-26T03:03:07;0.88;;;0.88;;
12177;SDS011;6152;48.728;9.256;2024-02-26T03:05:34;0.77;;;0.70;;
12177;SDS011;6152;48.728;9.256;2024-02-26T03:08:00;0.50;;;0.50;;
12177;SDS011;6152;48.728;9.256;2024-02-26T03:10:26;0.40;;;0.40;;
12177;SDS011;6152;48.728;9.256;2024-02-26T03:12:53;1.15;;;0.70;;
12177;SDS011;6152;48.728;9.256;2024-02-26T03:15:19;0.45;;;0.45;;
12177;SDS011;6152;48.728;9.256;2024-02-26T03:17:45;0.40;;;0.40;;
12177;SDS011;6152;48.728;9.256;2024-02-26T03:20:11;0.40;;;0.40;;
12177;SDS011;6152;48.728;9.256;2024-02-26T03:22:38;0.30;;;0.30;;
12177;SDS011;6152;48.728;9.256;2024-02-26T03:25:05;0.30;;;0.30;;
12177;SDS011;6152;48.728;9.256;2024-02-26T03:27:32;0.25;;;0.25;;
12177;SDS011;6152;48.728;9.256;2024-02-26T03:29:58;0.50;;;0.30;;
12177;SDS011;6152;48.728;9.256;2024-02-26T03:32:24;0.95;;;0.25;;
12177;SDS011;6152;48.728;9.256;2024-02-26T03:34:50;0.32;;;0.32;;
12177;SDS011;6152;48.728;9.256;2024-02-26T03:37:19;0.55;;;0.55;;
12177;SDS011;6152;48.728;9.256;2024-02-26T03:39:45;1.75;;;0.50;;
12177;SDS011;6152;48.728;9.256;2024-02-26T03:42:11;0.70;;;0.50;;
12177;SDS011;6152;48.728;9.256;2024-02-26T03:44:38;1.13;;;0.63;;
12177;SDS011;6152;48.728;9.256;2024-02-26T03:47:04;0.80;;;0.57;;
12177;SDS011;6152;48.728;9.256;2024-02-26T03:49:30;0.90;;;0.80;;
12177;SDS011;6152;48.728;9.256;2024-02-26T03:51:56;0.80;;;0.80;;
12177;SDS011;6152;48.728;9.256;2024-02-26T03:54:22;1.30;;;0.70;;
12177;SDS011;6152;48.728;9.256;2024-02-26T03:56:48;0.68;;;0.68;;
12177;SDS011;6152;48.728;9.256;2024-02-26T03:59:14;1.13;;;0.80;;
12177;SDS011;6152;48.728;9.256;2024-02-26T04:01:45;0.70;;;0.70;;
12177;SDS011;6152;48.728;9.256;2024-02-26T04:04:12;2.15;;;0.80;;
12177;SDS011;6152;48.728;9.256;2024-02-26T04:06:38;1.20;;;0.70;;
12177;SDS011;6152;48.728;9.256;2024-02-26T04:09:04;1.80;;;0.93;;
12177;SDS011;6152;48.728;9.256;2024-02-26T04:11:30;1.92;;;0.70;;
12177;SDS011;6152;48.728;9.256;2024-02-26T04:13:56;0.90;;;0.80;;
12177;SDS011;6152;48.728;9.256;2024-02-26T04:16:23;1.15;;;0.70;;
12177;SDS011;6152;48.728;9.256;2024-02-26T04:18:49;0.93;;;0.77;;
12177;SDS011;6152;48.728;9.256;2024-02-26T04:21:15;1.02;;;0.60;;
12177;SDS011;6152;48.728;9.256;2024-02-26T04:23:41;0.65;;;0.60;;
12177;SDS011;6152;48.728;9.256;2024-02-26T04:26:07;0.60;;;0.60;;
12177;SDS011;6152;48.728;9.256;2024-02-26T04:28:33;0.50;;;0.50;;
12177;SDS011;6152;48.728;9.256;2024-02-26T04:30:59;1.13;;;0.82;;
12177;SDS011;6152;48.728;9.256;2024-02-26T04:33:25;0.88;;;0.65;;
12177;SDS011;6152;48.728;9.256;2024-02-26T04:35:52;0.73;;;0.73;;
12177;SDS011;6152;48.728;9.256;2024-02-26T04:38:18;2.58;;;0.95;;
12177;SDS011;6152;48.728;9.256;2024-02-26T04:40:44;1.38;;;1.00;;
12177;SDS011;6152;48.728;9.256;2024-02-26T04:43:11;1.30;;;1.17;;
12177;SDS011;6152;48.728;9.256;2024-02-26T04:45:38;2.05;;;1.45;;
12177;SDS011;6152;48.728;9.256;2024-02-26T04:48:04;1.30;;;1.20;;
12177;SDS011;6152;48.728;9.256;2024-02-26T04:50:30;1.50;;;1.40;;
12177;SDS011;6152;48.728;9.256;2024-02-26T04:52:56;1.65;;;1.10;;
12177;SDS011;6152;48.728;9.256;2024-02-26T04:55:22;1.60;;;1.50;;
12177;SDS011;6152;48.728;9.256;2024-02-26T04:57:48;8.77;;;1.70;;
12177;SDS011;6152;48.728;9.256;2024-02-26T05:00:15;1.60;;;1.50;;
12177;SDS011;6152;48.728;9.256;2024-02-26T05:02:41;2.22;;;1.63;;
12177;SDS011;6152;48.728;9.256;2024-02-26T05:05:07;2.08;;;1.60;;
12177;SDS011;6152;48.728;9.256;2024-02-26T05:07:34;1.50;;;1.40;;
12177;SDS011;6152;48.728;9.256;2024-02-26T05:10:04;2.28;;;1.60;;
12177;SDS011;6152;48.728;9.256;2024-02-26T05:12:30;1.48;;;1.23;;
12177;SDS011;6152;48.728;9.256;2024-02-26T05:15:00;1.48;;;1.38;;
12177;SDS011;6152;48.728;9.256;2024-02-26T05:17:26;1.98;;;1.30;;
12177;SDS011;6152;48.728;9.256;2024-02-26T05:19:53;2.22;;;1.60;;
12177;SDS011;6152;48.728;9.256;2024-02-26T05:22:19;2.58;;;1.40;;
12177;SDS011;6152;48.728;9.256;2024-02-26T05:24:45;1.00;;;1.00;;
12177;SDS011;6152;48.728;9.256;2024-02-26T05:27:11;2.05;;;1.85;;
12177;SDS011;6152;48.728;9.256;2024-02-26T05:29:37;1.65;;;1.40;;
12177;SDS011;6152;48.728;9.256;2024-02-26T05:32:04;2.08;;;1.45;;
12177;SDS011;6152;48.728;9.256;2024-02-26T05:34:31;2.35;;;1.60;;
12177;SDS011;6152;48.728;9.256;2024-02-26T05:36:58;1.88;;;1.38;;
12177;SDS011;6152;48.728;9.256;2024-02-26T05:39:24;3.05;;;1.80;;
12177;SDS011;6152;48.728;9.256;2024-02-26T05:41:50;1.98;;;1.70;;
12177;SDS011;6152;48.728;9.256;2024-02-26T05:44:16;2.75;;;1.63;;
12177;SDS011;6152;48.728;9.256;2024-02-26T05:46:42;1.75;;;1.55;;
12177;SDS011;6152;48.728;9.256;2024-02-26T05:49:09;2.38;;;1.48;;
12177;SDS011;6152;48.728;9.256;2024-02-26T05:51:35;3.05;;;1.48;;
12177;SDS011;6152;48.728;9.256;2024-02-26T05:54:01;1.67;;;1.58;;
12177;SDS011;6152;48.728;9.256;2024-02-26T05:56:27;1.50;;;1.40;;
12177;SDS011;6152;48.728;9.256;2024-02-26T05:58:53;3.22;;;1.77;;
12177;SDS011;6152;48.728;9.256;2024-02-26T06:01:19;1.98;;;1.80;;
12177;SDS011;6152;48.728;9.256;2024-02-26T06:03:45;7.13;;;5.03;;
12177;SDS011;6152;48.728;9.256;2024-02-26T06:06:12;2.80;;;2.47;;
12177;SDS011;6152;48.728;9.256;2024-02-26T06:08:40;9.68;;;6.18;;
12177;SDS011;6152;48.728;9.256;2024-02-26T06:11:06;2.30;;;1.77;;
12177;SDS011;6152;48.728;9.256;2024-02-26T06:13:33;2.33;;;2.10;;
12177;SDS011;6152;48.728;9.256;2024-02-26T06:15:59;1.80;;;1.70;;
12177;SDS011;6152;48.728;9.256;2024-02-26T06:18:25;1.98;;;1.80;;
12177;SDS011;6152;48.728;9.256;2024-02-26T06:20:51;2.75;;;2.22;;
12177;SDS011;6152;48.728;9.256;2024-02-26T06:23:17;4.72;;;3.60;;
12177;SDS011;6152;48.728;9.256;2024-02-26T06:25:44;13.75;;;9.10;;
12177;SDS011;6152;48.728;9.256;2024-02-26T06:28:10;11.45;;;8.43;;
12177;SDS011;6152;48.728;9.256;2024-02-26T06:30:36;2.97;;;2.67;;
12177;SDS011;6152;48.728;9.256;2024-02-26T06:33:02;2.20;;;2.00;;
12177;SDS011;6152;48.728;9.256;2024-02-26T06:35:29;2.33;;;2.13;;
12177;SDS011;6152;48.728;9.256;2024-02-26T06:37:55;3.00;;;2.08;;
12177;SDS011;6152;48.728;9.256;2024-02-26T06:40:21;2.00;;;1.80;;
12177;SDS011;6152;48.728;9.256;2024-02-26T06:42:47;1.75;;;1.65;;
12177;SDS011;6152;48.728;9.256;2024-02-26T06:45:15;3.92;;;2.05;;
12177;SDS011;6152;48.728;9.256;2024-02-26T06:47:41;2.25;;;1.90;;
12177;SDS011;6152;48.728;9.256;2024-02-26T06:50:08;3.20;;;1.40;;
12177;SDS011;6152;48.728;9.256;2024-02-26T06:52:36;3.22;;;1.33;;
12177;SDS011;6152;48.728;9.256;2024-02-26T06:55:02;3.17;;;1.92;;
12177;SDS011;6152;48.728;9.256;2024-02-26T06:57:30;3.10;;;1.83;;
12177;SDS011;6152;48.728;9.256;2024-02-26T06:59:56;2.90;;;2.40;;
12177;SDS011;6152;48.728;9.256;2024-02-26T07:02:24;5.18;;;2.33;;
12177;SDS011;6152;48.728;9.256;2024-02-26T07:04:50;3.00;;;1.80;;
12177;SDS011;6152;48.728;9.256;2024-02-26T07:07:16;3.95;;;1.88;;
12177;SDS011;6152;48.728;9.256;2024-02-26T07:09:43;3.67;;;1.77;;
12177;SDS011;6152;48.728;9.256;2024-02-26T07:12:10;9.23;;;2.00;;
12177;SDS011;6152;48.728;9.256;2024-02-26T07:14:36;3.10;;;1.67;;
12177;SDS011;6152;48.728;9.256;2024-02-26T07:17:02;3.08;;;1.67;;
12177;SDS011;6152;48.728;9.256;2024-02-26T07:19:29;2.22;;;1.60;;
12177;SDS011;6152;48.728;9.256;2024-02-26T07:21:55;3.95;;;2.08;;
12177;SDS011;6152;48.728;9.256;2024-02-26T07:24:21;2.50;;;1.55;;
12177;SDS011;6152;48.728;9.256;2024-02-26T07:26:47;4.32;;;2.25;;
12177;SDS011;6152;48.728;9.256;2024-02-26T07:29:13;1.98;;;1.70;;
12177;SDS011;6152;48.728;9.256;2024-02-26T07:31:39;2.45;;;1.77;;
12177;SDS011;6152;48.728;9.256;2024-02-26T07:34:05;2.72;;;2.22;;
12177;SDS011;6152;48.728;9.256;2024-02-26T07:36:31;2.50;;;1.90;;
12177;SDS011;6152;48.728;9.256;2024-02-26T07:38:57;3.17;;;2.00;;
12177;SDS011;6152;48.728;9.256;2024-02-26T07:41:23;3.22;;;2.40;;
12177;SDS011;6152;48.728;9.256;2024-02-26T07:43:50;2.75;;;2.40;;
12177;SDS011;6152;48.728;9.256;2024-02-26T07:46:16;2.88;;;2.10;;
12177;SDS011;6152;48.728;9.256;2024-02-26T07:48:42;2.17;;;1.90;;
12177;SDS011;6152;48.728;9.256;2024-02-26T07:51:08;4.13;;;1.95;;
12177;SDS011;6152;48.728;9.256;2024-02-26T07:53:37;5.25;;;2.45;;
12177;SDS011;6152;48.728;9.256;2024-02-26T07:56:03;3.88;;;2.10;;
12177;SDS011;6152;48.728;9.256;2024-02-26T07:58:29;2.45;;;2.25;;
12177;SDS011;6152;48.728;9.256;2024-02-26T08:00:57;5.85;;;2.08;;
12177;SDS011;6152;48.728;9.256;2024-02-26T08:03:23;3.88;;;1.73;;
12177;SDS011;6152;48.728;9.256;2024-02-26T08:05:50;3.25;;;2.00;;
12177;SDS011;6152;48.728;9.256;2024-02-26T08:08:16;3.58;;;1.83;;
12177;SDS011;6152;48.728;9.256;2024-02-26T08:10:43;2.28;;;1.80;;
12177;SDS011;6152;48.728;9.256;2024-02-26T08:13:09;2.47;;;1.88;;
12177;SDS011;6152;48.728;9.256;2024-02-26T08:15:35;2.88;;;2.10;;
12177;SDS011;6152;48.728;9.256;2024-02-26T08:18:04;3.63;;;2.17;;
12177;SDS011;6152;48.728;9.256;2024-02-26T08:20:30;2.75;;;2.42;;
12177;SDS011;6152;48.728;9.256;2024-02-26T08:22:57;4.82;;;2.00;;
12177;SDS011;6152;48.728;9.256;2024-02-26T08:25:23;6.10;;;2.17;;
12177;SDS011;6152;48.728;9.256;2024-02-26T08:27:50;2.22;;;1.95;;
12177;SDS011;6152;48.728;9.256;2024-02-26T08:30:16;3.83;;;2.20;;
12177;SDS011;6152;48.728;9.256;2024-02-26T08:32:43;4.45;;;2.08;;
12177;SDS011;6152;48.728;9.256;2024-02-26T08:35:10;1.80;;;1.65;;
12177;SDS011;6152;48.728;9.256;2024-02-26T08:37:36;3.67;;;2.35;;
12177;SDS011;6152;48.728;9.256;2024-02-26T08:40:02;3.83;;;1.83;;
12177;SDS011;6152;48.728;9.256;2024-02-26T08:42:29;4.75;;;2.22;;
12177;SDS011;6152;48.728;9.256;2024-02-26T08:44:55;4.32;;;2.22;;
12177;SDS011;6152;48.728;9.256;2024-02-26T08:47:23;2.58;;;2.38;;
12177;SDS011;6152;48.728;9.256;2024-02-26T08:49:50;2.25;;;2.05;;
12177;SDS011;6152;48.728;9.256;2024-02-26T08:52:16;4.45;;;2.30;;
12177;SDS011;6152;48.728;9.256;2024-02-26T08:54:42;2.50;;;2.30;;
12177;SDS011;6152;48.728;9.256;2024-02-26T08:57:08;5.32;;;2.35;;
12177;SDS011;6152;48.728;9.256;2024-02-26T08:59:34;3.22;;;2.08;;
12177;SDS011;6152;48.728;9.256;2024-02-26T09:02:00;2.42;;;1.85;;
12177;SDS011;6152;48.728;9.256;2024-02-26T09:04:27;2.85;;;2.13;;
12177;SDS011;6152;48.728;9.256;2024-02-26T09:06:53;3.78;;;1.70;;
12177;SDS011;6152;48.728;9.256;2024-02-26T09:09:19;1.40;;;1.30;;
12177;SDS011;6152;48.728;9.256;2024-02-26T09:11:47;2.33;;;1.50;;
12177;SDS011;6152;48.728;9.256;2024-02-26T09:14:16;2.35;;;1.50;;
12177;SDS011;6152;48.728;9.256;2024-02-26T09:16:46;1.95;;;1.48;;
12177;SDS011;6152;48.728;9.256;2024-02-26T09:19:16;4.68;;;1.80;;
12177;SDS011;6152;48.728;9.256;2024-02-26T09:21:45;3.72;;;1.90;;
12177;SDS011;6152;48.728;9.256;2024-02-26T09:24:12;3.63;;;1.85;;
12177;SDS011;6152;48.728;9.256;2024-02-26T09:26:38;4.05;;;2.40;;
12177;SDS011;6152;48.728;9.256;2024-02-26T09:29:04;4.78;;;3.05;;
12177;SDS011;6152;48.728;9.256;2024-02-26T09:31:31;6.38;;;4.15;;
12177;SDS011;6152;48.728;9.256;2024-02-26T09:33:59;3.95;;;2.65;;
12177;SDS011;6152;48.728;9.256;2024-02-26T09:36:25;3.88;;;2.80;;
12177;SDS011;6152;48.728;9.256;2024-02-26T09:38:51;4.25;;;2.75;;
12177;SDS011;6152;48.728;9.256;2024-02-26T09:41:17;4.30;;;2.40;;
12177;SDS011;6152;48.728;9.256;2024-02-26T09:43:44;5.10;;;2.50;;
12177;SDS011;6152;48.728;9.256;2024-02-26T09:46:13;4.43;;;2.72;;
12177;SDS011;6152;48.728;9.256;2024-02-26T09:48:40;6.85;;;5.00;;
12177;SDS011;6152;48.728;9.256;2024-02-26T09:51:09;4.35;;;3.05;;
12177;SDS011;6152;48.728;9.256;2024-02-26T09:53:39;2.85;;;2.50;;
12177;SDS011;6152;48.728;9.256;2024-02-26T09:56:08;2.35;;;2.13;;
12177;SDS011;6152;48.728;9.256;2024-02-26T09:58:36;4.45;;;2.42;;
12177;SDS011;6152;48.728;9.256;2024-02-26T10:01:04;3.15;;;2.67;;
12177;SDS011;6152;48.728;9.256;2024-02-26T10:03:41;2.20;;;1.95;;
12177;SDS011;6152;48.728;9.256;2024-02-26T10:06:10;2.78;;;1.90;;
12177;SDS011;6152;48.728;9.256;2024-02-26T10:08:36;2.13;;;1.73;;
12177;SDS011;6152;48.728;9.256;2024-02-26T10:11:09;2.22;;;1.35;;
12177;SDS011;6152;48.728;9.256;2024-02-26T10:13:36;2.28;;;1.42;;
12177;SDS011;6152;48.728;9.256;2024-02-26T10:16:03;1.42;;;1.33;;
12177;SDS011;6152;48.728;9.256;2024-02-26T10:18:48;1.88;;;1.60;;
12177;SDS011;6152;48.728;9.256;2024-02-26T10:21:18;1.75;;;1.35;;
12177;SDS011;6152;48.728;9.256;2024-02-26T10:23:46;2.83;;;1.30;;
12177;SDS011;6152;48.728;9.256;2024-02-26T10:26:13;1.75;;;0.88;;
12177;SDS011;6152;48.728;9.256;2024-02-26T10:28:41;0.93;;;0.93;;
12177;SDS011;6152;48.728;9.256;2024-02-26T10:31:08;1.48;;;0.90;;
12177;SDS011;6152;48.728;9.256;2024-02-26T10:33:35;1.48;;;1.33;;
12177;SDS011;6152;48.728;9.256;2024-02-26T10:36:03;2.22;;;1.13;;
12177;SDS011;6152;48.728;9.256;2024-02-26T10:38:30;1.40;;;1.10;;
12177;SDS011;6152;48.728;9.256;2024-02-26T10:41:04;1.92;;;1.20;;
12177;SDS011;6152;48.728;9.256;2024-02-26T10:43:37;1.00;;;1.00;;
12177;SDS011;6152;48.728;9.256;2024-02-26T10:46:03;3.25;;;1.52;;
12177;SDS011;6152;48.728;9.256;2024-02-26T10:48:31;1.90;;;1.30;;
12177;SDS011;6152;48.728;9.256;2024-02-26T10:50:57;1.55;;;1.33;;
12177;SDS011;6152;48.728;9.256;2024-02-26T10:53:24;1.20;;;1.10;;
12177;SDS011;6152;48.728;9.256;2024-02-26T10:55:59;1.13;;;1.02;;
12177;SDS011;6152;48.728;9.256;2024-02-26T10:58:28;1.30;;;1.10;;
12177;SDS011;6152;48.728;9.256;2024-02-26T11:00:56;2.47;;;1.20;;
12177;SDS011;6152;48.728;9.256;2024-02-26T11:03:23;1.30;;;0.98;;
12177;SDS011;6152;48.728;9.256;2024-02-26T11:05:50;2.67;;;0.90;;
12177;SDS011;6152;48.728;9.256;2024-02-26T11:08:19;1.23;;;1.00;;
12177;SDS011;6152;48.728;9.256;2024-02-26T11:10:47;1.15;;;1.05;;
12177;SDS011;6152;48.728;9.256;2024-02-26T11:13:16;2.60;;;1.70;;
12177;SDS011;6152;48.728;9.256;2024-02-26T11:15:45;1.40;;;1.25;;
12177;SDS011;6152;48.728;9.256;2024-02-26T11:18:14;2.30;;;0.80;;
12177;SDS011;6152;48.728;9.256;2024-02-26T11:20:41;3.53;;;0.63;;
12177;SDS011;6152;48.728;9.256;2024-02-26T11:23:09;1.02;;;0.70;;
12177;SDS011;6152;48.728;9.256;2024-02-26T11:25:35;0.70;;;0.70;;
12177;SDS011;6152;48.728;9.256;2024-02-26T11:28:06;1.67;;;1.00;;
12177;SDS011;6152;48.728;9.256;2024-02-26T11:30:38;2.95;;;0.85;;
12177;SDS011;6152;48.728;9.256;2024-02-26T11:33:08;4.82;;;1.20;;
12177;SDS011;6152;48.728;9.256;2024-02-26T11:35:38;5.25;;;1.10;;
12177;SDS011;6152;48.728;9.256;2024-02-26T11:38:04;2.28;;;0.70;;
12177;SDS011;6152;48.728;9.256;2024-02-26T11:40:32;2.30;;;1.42;;
12177;SDS011;6152;48.728;9.256;2024-02-26T11:43:03;1.98;;;1.13;;
12177;SDS011;6152;48.728;9.256;2024-02-26T11:48:10;2.50;;;0.88;;
12177;SDS011;6152;48.728;9.256;2024-02-26T11:50:41;1.90;;;0.73;;
12177;SDS011;6152;48.728;9.256;2024-02-26T11:53:27;0.68;;;0.60;;
12177;SDS011;6152;48.728;9.256;2024-02-26T11:58:57;2.90;;;0.85;;
12177;SDS011;6152;48.728;9.256;2024-02-26T12:01:39;2.78;;;0.90;;
12177;SDS011;6152;48.728;9.256;2024-02-26T12:04:21;0.57;;;0.57;;
12177;SDS011;6152;48.728;9.256;2024-02-26T12:07:01;1.90;;;1.38;;
12177;SDS011;6152;48.728;9.256;2024-02-26T12:09:35;1.65;;;1.10;;
12177;SDS011;6152;48.728;9.256;2024-02-26T12:12:07;1.10;;;1.10;;
12177;SDS011;6152;48.728;9.256;2024-02-26T12:14:37;1.20;;;1.10;;
12177;SDS011;6152;48.728;9.256;2024-02-26T12:17:22;1.85;;;0.85;;
12177;SDS011;6152;48.728;9.256;2024-02-26T12:19:49;1.35;;;0.80;;
12177;SDS011;6152;48.728;9.256;2024-02-26T12:22:18;1.48;;;0.68;;
12177;SDS011;6152;48.728;9.256;2024-02-26T12:24:44;0.52;;;0.52;;
12177;SDS011;6152;48.728;9.256;2024-02-26T12:27:11;0.50;;;0.50;;
12177;SDS011;6152;48.728;9.256;2024-02-26T12:29:37;1.33;;;0.90;;
12177;SDS011;6152;48.728;9.256;2024-02-26T12:32:04;1.70;;;1.10;;
12177;SDS011;6152;48.728;9.256;2024-02-26T12:34:31;0.63;;;0.63;;
12177;SDS011;6152;48.728;9.256;2024-02-26T12:36:57;0.77;;;0.57;;
12177;SDS011;6152;48.728;9.256;2024-02-26T12:39:24;0.63;;;0.63;;
12177;SDS011;6152;48.728;9.256;2024-02-26T12:41:50;0.60;;;0.60;;
12177;SDS011;6152;48.728;9.256;2024-02-26T12:44:16;0.60;;;0.60;;
12177;SDS011;6152;48.728;9.256;2024-02-26T12:46:43;0.85;;;0.85;;
12177;SDS011;6152;48.728;9.256;2024-02-26T12:49:14;1.38;;;0.60;;
12177;SDS011;6152;48.728;9.256;2024-02-26T12:51:42;2.55;;;0.90;;
12177;SDS011;6152;48.728;9.256;2024-02-26T12:54:10;1.33;;;1.10;;
12177;SDS011;6152;48.728;9.256;2024-02-26T12:56:38;3.30;;;1.85;;
12177;SDS011;6152;48.728;9.256;2024-02-26T12:59:04;1.35;;;0.68;;
12177;SDS011;6152;48.728;9.256;2024-02-26T13:01:30;1.30;;;1.20;;
12177;SDS011;6152;48.728;9.256;2024-02-26T13:03:57;2.13;;;1.05;;
12177;SDS011;6152;48.728;9.256;2024-02-26T13:06:25;2.63;;;1.35;;
12177;SDS011;6152;48.728;9.256;2024-02-26T13:08:55;3.13;;;1.30;;
12177;SDS011;6152;48.728;9.256;2024-02-26T13:11:23;1.55;;;1.30;;
12177;SDS011;6152;48.728;9.256;2024-02-26T13:13:49;2.05;;;1.38;;
12177;SDS011;6152;48.728;9.256;2024-02-26T13:16:16;2.05;;;0.90;;
12177;SDS011;6152;48.728;9.256;2024-02-26T13:18:42;0.95;;;0.90;;
12177;SDS011;6152;48.728;9.256;2024-02-26T13:21:15;3.28;;;1.10;;
12177;SDS011;6152;48.728;9.256;2024-02-26T13:23:43;2.22;;;1.30;;
12177;SDS011;6152;48.728;9.256;2024-02-26T13:26:15;4.25;;;2.63;;
12177;SDS011;6152;48.728;9.256;2024-02-26T13:28:41;3.78;;;1.88;;
12177;SDS011;6152;48.728;9.256;2024-02-26T13:31:07;1.92;;;1.00;;
12177;SDS011;6152;48.728;9.256;2024-02-26T13:33:34;3.78;;;1.75;;
12177;SDS011;6152;48.728;9.256;2024-02-26T13:36:00;2.83;;;1.45;;
12177;SDS011;6152;48.728;9.256;2024-02-26T13:38:28;4.45;;;1.50;;
12177;SDS011;6152;48.728;9.256;2024-02-26T13:40:54;4.10;;;3.08;;
12177;SDS011;6152;48.728;9.256;2024-02-26T13:43:20;5.60;;;2.30;;
12177;SDS011;6152;48.728;9.256;2024-02-26T13:45:47;3.05;;;1.95;;
12177;SDS011;6152;48.728;9.256;2024-02-26T13:48:13;5.47;;;2.00;;
12177;SDS011;6152;48.728;9.256;2024-02-26T13:50:40;3.58;;;1.80;;
12177;SDS011;6152;48.728;9.256;2024-02-26T13:53:10;1.92;;;1.52;;
12177;SDS011;6152;48.728;9.256;2024-02-26T13:55:37;1.67;;;1.15;;
12177;SDS011;6152;48.728;9.256;2024-02-26T13:58:05;3.53;;;1.33;;
12177;SDS011;6152;48.728;9.256;2024-02-26T14:00:32;3.05;;;1.73;;
12177;SDS011;6152;48.728;9.256;2024-02-26T14:02:59;1.23;;;1.13;;
12177;SDS011;6152;48.728;9.256;2024-02-26T14:05:26;2.30;;;0.98;;
12177;SDS011;6152;48.728;9.256;2024-02-26T14:07:52;2.45;;;0.82;;
12177;SDS011;6152;48.728;9.256;2024-02-26T14:10:20;1.08;;;0.52;;
12177;SDS011;6152;48.728;9.256;2024-02-26T14:12:46;1.35;;;0.88;;
12177;SDS011;6152;48.728;9.256;2024-02-26T14:15:12;1.52;;;0.70;;
12177;SDS011;6152;48.728;9.256;2024-02-26T14:17:38;1.10;;;0.57;;
12177;SDS011;6152;48.728;9.256;2024-02-26T14:20:04;1.67;;;0.75;;
12177;SDS011;6152;48.728;9.256;2024-02-26T14:22:32;2.38;;;0.70;;
12177;SDS011;6152;48.728;9.256;2024-02-26T14:24:58;2.28;;;0.50;;
12177;SDS011;6152;48.728;9.256;2024-02-26T14:27:25;1.90;;;1.13;;
12177;SDS011;6152;48.728;9.256;2024-02-26T14:29:51;0.77;;;0.40;;
12177;SDS011;6152;48.728;9.256;2024-02-26T14:32:18;0.82;;;0.50;;
12177;SDS011;6152;48.728;9.256;2024-02-26T14:34:44;0.80;;;0.80;;
12177;SDS011;6152;48.728;9.256;2024-02-26T14:37:10;2.22;;;0.88;;
12177;SDS011;6152;48.728;9.256;2024-02-26T14:39:37;0.85;;;0.60;;
12177;SDS011;6152;48.728;9.256;2024-02-26T14:42:03;0.77;;;0.30;;
12177;SDS011;6152;48.728;9.256;2024-02-26T14:44:30;0.68;;;0.40;;
12177;SDS011;6152;48.728;9.256;2024-02-26T14:46:56;1.05;;;0.40;;
12177;SDS011;6152;48.728;9.256;2024-02-26T14:49:23;0.80;;;0.50;;
12177;SDS011;6152;48.728;9.256;2024-02-26T14:51:49;0.47;;;0.45;;
12177;SDS011;6152;48.728;9.256;2024-02-26T14:54:15;2.90;;;0.68;;
12177;SDS011;6152;48.728;9.256;2024-02-26T14:56:41;1.08;;;0.52;;
12177;SDS011;6152;48.728;9.256;2024-02-26T14:59:07;6.72;;;0.40;;
12177;SDS011;6152;48.728;9.256;2024-02-26T15:01:33;1.00;;;0.60;;
12177;SDS011;6152;48.728;9.256;2024-02-26T15:04:00;1.60;;;0.47;;
12177;SDS011;6152;48.728;9.256;2024-02-26T15:06:26;0.70;;;0.63;;